sensor_id;sensor_type;location;lat;lon;timestamp;temperature;humidity
35607;DHT22;21729;58.392;15.656;2023-07-22T00:00:51;10.00;1.00
35607;DHT22;21729;58.392;15.656;2023-07-22T00:03:18;10.00;1.00
35607;DHT22;21729;58.392;15.656;2023-07-22T00:05:46;9.90;1.00
35607;DHT22;21729;58.392;15.656;2023-07-22T00:08:14;9.90;1.00
35607;DHT22;21729;58.392;15.656;2023-07-22T00:10:42;9.90;1.00
35607;DHT22;21729;58.392;15.656;2023-07-22T00:13:09;9.90;1.00
35607;DHT22;21729;58.392;15.656;2023-07-22T00:15:36;9.80;1.00
35607;DHT22;21729;58.392;15.656;2023-07-22T00:18:03;9.80;1.00
35607;DHT22;21729;58.392;15.656;2023-07-22T00:20:31;9.80;4.10
35607;DHT22;21729;58.392;15.656;2023-07-22T00:22:58;9.80;9.00
35607;DHT22;21729;58.392;15.656;2023-07-22T00:25:26;9.80;15.90
35607;DHT22;21729;58.392;15.656;2023-07-22T00:27:54;9.70;9.50
35607;DHT22;21729;58.392;15.656;2023-07-22T00:30:23;9.70;25.10
35607;DHT22;21729;58.392;15.656;2023-07-22T00:32:51;9.80;34.80
35607;DHT22;21729;58.392;15.656;2023-07-22T00:35:18;9.80;29.70
35607;DHT22;21729;58.392;15.656;2023-07-22T00:37:45;9.80;8.50
35607;DHT22;21729;58.392;15.656;2023-07-22T00:40:12;9.80;2.00
35607;DHT22;21729;58.392;15.656;2023-07-22T00:42:42;9.90;1.00
35607;DHT22;21729;58.392;15.656;2023-07-22T00:45:10;9.90;1.00
35607;DHT22;21729;58.392;15.656;2023-07-22T00:47:39;9.80;1.00
35607;DHT22;21729;58.392;15.656;2023-07-22T00:50:07;9.80;7.80
35607;DHT22;21729;58.392;15.656;2023-07-22T00:52:35;9.70;5.10
35607;DHT22;21729;58.392;15.656;2023-07-22T00:55:02;9.60;33.30
35607;DHT22;21729;58.392;15.656;2023-07-22T00:57:29;9.60;32.30
35607;DHT22;21729;58.392;15.656;2023-07-22T00:59:58;9.70;31.60
35607;DHT22;21729;58.392;15.656;2023-07-22T01:02:25;9.60;14.30
35607;DHT22;21729;58.392;15.656;2023-07-22T01:04:52;9.60;19.80
35607;DHT22;21729;58.392;15.656;2023-07-22T01:07:20;9.60;36.30
35607;DHT22;21729;58.392;15.656;2023-07-22T01:09:47;9.50;36.50
35607;DHT22;21729;58.392;15.656;2023-07-22T01:12:14;9.50;45.90
35607;DHT22;21729;58.392;15.656;2023-07-22T01:14:42;9.60;80.20
35607;DHT22;21729;58.392;15.656;2023-07-22T01:17:11;9.80;41.80
35607;DHT22;21729;58.392;15.656;2023-07-22T01:19:38;10.00;3.10
35607;DHT22;21729;58.392;15.656;2023-07-22T01:22:07;10.10;1.00
35607;DHT22;21729;58.392;15.656;2023-07-22T01:24:35;10.20;1.00
35607;DHT22;21729;58.392;15.656;2023-07-22T01:27:03;10.20;1.00
35607;DHT22;21729;58.392;15.656;2023-07-22T01:29:34;10.20;1.00
35607;DHT22;21729;58.392;15.656;2023-07-22T01:32:02;10.30;1.00
35607;DHT22;21729;58.392;15.656;2023-07-22T01:34:29;10.30;1.00
35607;DHT22;21729;58.392;15.656;2023-07-22T01:36:57;10.50;1.00
35607;DHT22;21729;58.392;15.656;2023-07-22T01:39:27;10.50;1.00
35607;DHT22;21729;58.392;15.656;2023-07-22T01:41:56;10.50;1.00
35607;DHT22;21729;58.392;15.656;2023-07-22T01:44:23;10.60;1.00
35607;DHT22;21729;58.392;15.656;2023-07-22T01:46:51;10.70;1.00
35607;DHT22;21729;58.392;15.656;2023-07-22T01:49:18;10.70;1.00
35607;DHT22;21729;58.392;15.656;2023-07-22T01:51:45;10.70;1.00
35607;DHT22;21729;58.392;15.656;2023-07-22T01:54:12;10.70;1.00
35607;DHT22;21729;58.392;15.656;2023-07-22T01:56:39;10.80;1.00
35607;DHT22;21729;58.392;15.656;2023-07-22T01:59:08;10.90;1.00
35607;DHT22;21729;58.392;15.656;2023-07-22T02:01:35;10.90;1.00
35607;DHT22;21729;58.392;15.656;2023-07-22T02:04:02;10.90;1.00
35607;DHT22;21729;58.392;15.656;2023-07-22T02:06:30;11.00;1.00
35607;DHT22;21729;58.392;15.656;2023-07-22T02:08:57;11.10;1.00
35607;DHT22;21729;58.392;15.656;2023-07-22T02:11:24;11.10;1.00
35607;DHT22;21729;58.392;15.656;2023-07-22T02:13:51;11.20;1.00
35607;DHT22;21729;58.392;15.656;2023-07-22T02:16:20;11.20;1.00
35607;DHT22;21729;58.392;15.656;2023-07-22T02:18:46;11.20;1.00
35607;DHT22;21729;58.392;15.656;2023-07-22T02:21:14;11.20;1.00
35607;DHT22;21729;58.392;15.656;2023-07-22T02:23:41;11.10;1.00
35607;DHT22;21729;58.392;15.656;2023-07-22T02:26:08;11.10;1.00
35607;DHT22;21729;58.392;15.656;2023-07-22T02:28:35;11.00;1.00
35607;DHT22;21729;58.392;15.656;2023-07-22T02:31:03;10.80;1.00
35607;DHT22;21729;58.392;15.656;2023-07-22T02:33:34;10.70;1.00
35607;DHT22;21729;58.392;15.656;2023-07-22T02:36:01;10.60;1.00
35607;DHT22;21729;58.392;15.656;2023-07-22T02:38:28;10.50;1.00
35607;DHT22;21729;58.392;15.656;2023-07-22T02:41:01;10.50;1.00
35607;DHT22;21729;58.392;15.656;2023-07-22T02:43:28;10.30;1.00
35607;DHT22;21729;58.392;15.656;2023-07-22T02:45:56;10.30;1.00
35607;DHT22;21729;58.392;15.656;2023-07-22T02:48:23;10.20;11.40
35607;DHT22;21729;58.392;15.656;2023-07-22T02:50:52;10.10;24.40
35607;DHT22;21729;58.392;15.656;2023-07-22T02:53:19;10.10;59.40
35607;DHT22;21729;58.392;15.656;2023-07-22T02:55:46;10.00;99.90
35607;DHT22;21729;58.392;15.656;2023-07-22T02:58:14;10.00;99.90
35607;DHT22;21729;58.392;15.656;2023-07-22T03:00:41;9.90;99.90
35607;DHT22;21729;58.392;15.656;2023-07-22T03:03:09;9.90;99.90
35607;DHT22;21729;58.392;15.656;2023-07-22T03:05:36;9.90;99.90
35607;DHT22;21729;58.392;15.656;2023-07-22T03:08:05;9.90;99.90
35607;DHT22;21729;58.392;15.656;2023-07-22T03:10:32;9.90;99.90
35607;DHT22;21729;58.392;15.656;2023-07-22T03:13:00;9.90;99.90
35607;DHT22;21729;58.392;15.656;2023-07-22T03:15:29;9.80;99.90
35607;DHT22;21729;58.392;15.656;2023-07-22T03:17:57;9.80;99.90
35607;DHT22;21729;58.392;15.656;2023-07-22T03:20:25;9.80;99.90
35607;DHT22;21729;58.392;15.656;2023-07-22T03:22:52;9.80;99.90
35607;DHT22;21729;58.392;15.656;2023-07-22T03:25:21;9.80;99.90
35607;DHT22;21729;58.392;15.656;2023-07-22T03:27:48;9.80;99.90
35607;DHT22;21729;58.392;15.656;2023-07-22T03:30:17;9.80;99.90
35607;DHT22;21729;58.392;15.656;2023-07-22T03:32:46;9.80;99.90
35607;DHT22;21729;58.392;15.656;2023-07-22T03:35:14;9.80;99.90
35607;DHT22;21729;58.392;15.656;2023-07-22T03:37:42;9.90;99.90
35607;DHT22;21729;58.392;15.656;2023-07-22T03:40:10;9.90;99.90
35607;DHT22;21729;58.392;15.656;2023-07-22T03:42:41;9.90;99.90
35607;DHT22;21729;58.392;15.656;2023-07-22T03:45:09;10.00;99.90
35607;DHT22;21729;58.392;15.656;2023-07-22T03:47:38;10.10;99.90
35607;DHT22;21729;58.392;15.656;2023-07-22T03:50:06;10.20;99.90
35607;DHT22;21729;58.392;15.656;2023-07-22T03:52:33;10.20;99.90
35607;DHT22;21729;58.392;15.656;2023-07-22T03:55:00;10.30;99.90
35607;DHT22;21729;58.392;15.656;2023-07-22T03:57:28;10.40;99.90
35607;DHT22;21729;58.392;15.656;2023-07-22T03:59:57;10.50;99.90
35607;DHT22;21729;58.392;15.656;2023-07-22T04:02:24;10.50;99.90
35607;DHT22;21729;58.392;15.656;2023-07-22T04:04:53;10.60;99.90
35607;DHT22;21729;58.392;15.656;2023-07-22T04:07:21;10.60;99.90
35607;DHT22;21729;58.392;15.656;2023-07-22T04:09:49;10.70;99.90
35607;DHT22;21729;58.392;15.656;2023-07-22T04:12:16;10.70;99.90
35607;DHT22;21729;58.392;15.656;2023-07-22T04:14:44;10.80;99.90
35607;DHT22;21729;58.392;15.656;2023-07-22T04:17:12;10.80;99.90
35607;DHT22;21729;58.392;15.656;2023-07-22T04:19:41;10.90;99.90
35607;DHT22;21729;58.392;15.656;2023-07-22T04:22:09;11.00;99.90
35607;DHT22;21729;58.392;15.656;2023-07-22T04:24:36;11.00;99.90
35607;DHT22;21729;58.392;15.656;2023-07-22T04:27:03;11.00;99.90
35607;DHT22;21729;58.392;15.656;2023-07-22T04:29:30;11.00;99.90
35607;DHT22;21729;58.392;15.656;2023-07-22T04:31:58;11.10;99.90
35607;DHT22;21729;58.392;15.656;2023-07-22T04:34:30;11.20;99.90
35607;DHT22;21729;58.392;15.656;2023-07-22T04:36:57;11.20;99.90
35607;DHT22;21729;58.392;15.656;2023-07-22T04:39:24;11.20;99.90
35607;DHT22;21729;58.392;15.656;2023-07-22T04:41:51;11.30;99.90
35607;DHT22;21729;58.392;15.656;2023-07-22T04:44:19;11.40;99.90
35607;DHT22;21729;58.392;15.656;2023-07-22T04:46:46;11.40;99.90
35607;DHT22;21729;58.392;15.656;2023-07-22T04:49:13;11.50;99.90
35607;DHT22;21729;58.392;15.656;2023-07-22T04:51:45;11.60;99.90
35607;DHT22;21729;58.392;15.656;2023-07-22T04:54:12;11.70;99.90
35607;DHT22;21729;58.392;15.656;2023-07-22T04:56:41;11.70;99.90
35607;DHT22;21729;58.392;15.656;2023-07-22T04:59:08;11.80;99.90
35607;DHT22;21729;58.392;15.656;2023-07-22T05:01:36;11.90;99.90
35607;DHT22;21729;58.392;15.656;2023-07-22T05:04:03;12.00;99.90
35607;DHT22;21729;58.392;15.656;2023-07-22T05:06:30;12.10;88.70
35607;DHT22;21729;58.392;15.656;2023-07-22T05:08:59;12.20;80.60
35607;DHT22;21729;58.392;15.656;2023-07-22T05:11:26;12.30;74.60
35607;DHT22;21729;58.392;15.656;2023-07-22T05:13:53;12.40;47.40
35607;DHT22;21729;58.392;15.656;2023-07-22T05:16:20;12.50;33.60
35607;DHT22;21729;58.392;15.656;2023-07-22T05:18:47;12.80;1.00
35607;DHT22;21729;58.392;15.656;2023-07-22T05:21:14;12.90;1.00
35607;DHT22;21729;58.392;15.656;2023-07-22T05:23:41;13.10;1.00
35607;DHT22;21729;58.392;15.656;2023-07-22T05:26:10;13.30;1.00
35607;DHT22;21729;58.392;15.656;2023-07-22T05:28:37;13.50;1.00
35607;DHT22;21729;58.392;15.656;2023-07-22T05:31:05;13.70;1.00
35607;DHT22;21729;58.392;15.656;2023-07-22T05:33:32;14.10;1.00
35607;DHT22;21729;58.392;15.656;2023-07-22T05:35:59;14.20;1.00
35607;DHT22;21729;58.392;15.656;2023-07-22T05:38:26;14.40;1.00
35607;DHT22;21729;58.392;15.656;2023-07-22T05:40:53;14.80;1.00
35607;DHT22;21729;58.392;15.656;2023-07-22T05:43:22;15.00;1.00
35607;DHT22;21729;58.392;15.656;2023-07-22T05:45:49;15.50;99.90
35607;DHT22;21729;58.392;15.656;2023-07-22T05:48:16;16.80;99.90
35607;DHT22;21729;58.392;15.656;2023-07-22T05:50:43;19.00;15.90
35607;DHT22;21729;58.392;15.656;2023-07-22T05:53:11;20.40;1.00
35607;DHT22;21729;58.392;15.656;2023-07-22T05:55:38;21.20;99.90
35607;DHT22;21729;58.392;15.656;2023-07-22T05:58:06;21.80;99.90
35607;DHT22;21729;58.392;15.656;2023-07-22T06:00:35;21.30;99.90
35607;DHT22;21729;58.392;15.656;2023-07-22T06:03:03;22.00;99.90
35607;DHT22;21729;58.392;15.656;2023-07-22T06:05:30;21.80;99.90
35607;DHT22;21729;58.392;15.656;2023-07-22T06:07:57;22.00;99.90
35607;DHT22;21729;58.392;15.656;2023-07-22T06:10:25;22.80;99.90
35607;DHT22;21729;58.392;15.656;2023-07-22T06:12:52;23.40;99.90
35607;DHT22;21729;58.392;15.656;2023-07-22T06:15:19;23.30;99.90
35607;DHT22;21729;58.392;15.656;2023-07-22T06:17:48;23.50;99.90
35607;DHT22;21729;58.392;15.656;2023-07-22T06:20:15;23.40;99.90
35607;DHT22;21729;58.392;15.656;2023-07-22T06:22:42;23.60;99.90
35607;DHT22;21729;58.392;15.656;2023-07-22T06:25:09;23.90;97.80
35607;DHT22;21729;58.392;15.656;2023-07-22T06:27:37;24.70;35.30
35607;DHT22;21729;58.392;15.656;2023-07-22T06:30:06;24.20;99.90
35607;DHT22;21729;58.392;15.656;2023-07-22T06:32:34;24.30;87.70
35607;DHT22;21729;58.392;15.656;2023-07-22T06:35:03;24.00;99.90
35607;DHT22;21729;58.392;15.656;2023-07-22T06:37:30;23.80;94.50
35607;DHT22;21729;58.392;15.656;2023-07-22T06:39:57;24.40;50.50
35607;DHT22;21729;58.392;15.656;2023-07-22T06:42:24;24.50;50.60
35607;DHT22;21729;58.392;15.656;2023-07-22T06:44:52;24.70;32.20
35607;DHT22;21729;58.392;15.656;2023-07-22T06:47:19;24.40;48.30
35607;DHT22;21729;58.392;15.656;2023-07-22T06:49:46;23.40;73.30
35607;DHT22;21729;58.392;15.656;2023-07-22T06:52:15;23.30;61.40
35607;DHT22;21729;58.392;15.656;2023-07-22T06:54:42;24.70;17.00
35607;DHT22;21729;58.392;15.656;2023-07-22T06:57:09;25.10;1.00
35607;DHT22;21729;58.392;15.656;2023-07-22T06:59:36;25.10;24.00
35607;DHT22;21729;58.392;15.656;2023-07-22T07:02:04;25.40;29.50
35607;DHT22;21729;58.392;15.656;2023-07-22T07:04:31;24.70;1.80
35607;DHT22;21729;58.392;15.656;2023-07-22T07:06:58;24.70;1.00
35607;DHT22;21729;58.392;15.656;2023-07-22T07:09:27;25.00;5.40
35607;DHT22;21729;58.392;15.656;2023-07-22T07:11:54;24.80;8.00
35607;DHT22;21729;58.392;15.656;2023-07-22T07:14:22;25.10;1.00
35607;DHT22;21729;58.392;15.656;2023-07-22T07:16:50;26.20;1.00
35607;DHT22;21729;58.392;15.656;2023-07-22T07:19:17;25.80;1.00
35607;DHT22;21729;58.392;15.656;2023-07-22T07:21:44;26.10;1.00
35607;DHT22;21729;58.392;15.656;2023-07-22T07:24:11;25.40;1.00
35607;DHT22;21729;58.392;15.656;2023-07-22T07:26:40;25.70;1.00
35607;DHT22;21729;58.392;15.656;2023-07-22T07:29:07;23.60;1.00
35607;DHT22;21729;58.392;15.656;2023-07-22T07:31:35;22.50;1.00
35607;DHT22;21729;58.392;15.656;2023-07-22T07:34:02;24.30;1.40
35607;DHT22;21729;58.392;15.656;2023-07-22T07:36:29;25.80;1.00
35607;DHT22;21729;58.392;15.656;2023-07-22T07:38:56;25.00;1.00
35607;DHT22;21729;58.392;15.656;2023-07-22T07:41:23;22.90;1.00
35607;DHT22;21729;58.392;15.656;2023-07-22T07:43:51;22.70;6.10
35607;DHT22;21729;58.392;15.656;2023-07-22T07:46:22;23.20;9.30
35607;DHT22;21729;58.392;15.656;2023-07-22T07:48:50;23.50;1.00
35607;DHT22;21729;58.392;15.656;2023-07-22T07:51:19;22.10;1.00
35607;DHT22;21729;58.392;15.656;2023-07-22T07:53:47;21.40;85.10
35607;DHT22;21729;58.392;15.656;2023-07-22T07:56:15;21.30;41.60
35607;DHT22;21729;58.392;15.656;2023-07-22T07:58:43;23.10;33.30
35607;DHT22;21729;58.392;15.656;2023-07-22T08:01:12;22.80;1.00
35607;DHT22;21729;58.392;15.656;2023-07-22T08:03:39;22.60;1.00
35607;DHT22;21729;58.392;15.656;2023-07-22T08:06:07;22.10;1.00
35607;DHT22;21729;58.392;15.656;2023-07-22T08:08:35;21.70;7.10
35607;DHT22;21729;58.392;15.656;2023-07-22T08:11:06;22.30;14.90
35607;DHT22;21729;58.392;15.656;2023-07-22T08:13:33;22.10;17.70
35607;DHT22;21729;58.392;15.656;2023-07-22T08:16:02;22.20;1.00
35607;DHT22;21729;58.392;15.656;2023-07-22T08:18:31;21.60;1.00
35607;DHT22;21729;58.392;15.656;2023-07-22T08:21:01;21.20;23.60
35607;DHT22;21729;58.392;15.656;2023-07-22T08:23:29;20.60;49.60
35607;DHT22;21729;58.392;15.656;2023-07-22T08:25:56;20.30;36.80
35607;DHT22;21729;58.392;15.656;2023-07-22T08:28:23;20.30;75.60
35607;DHT22;21729;58.392;15.656;2023-07-22T08:30:54;20.90;59.80
35607;DHT22;21729;58.392;15.656;2023-07-22T08:33:22;21.20;49.30
35607;DHT22;21729;58.392;15.656;2023-07-22T08:35:51;20.70;99.90
35607;DHT22;21729;58.392;15.656;2023-07-22T08:38:18;20.50;99.90
35607;DHT22;21729;58.392;15.656;2023-07-22T08:40:49;20.60;71.90
35607;DHT22;21729;58.392;15.656;2023-07-22T08:43:19;20.30;99.90
35607;DHT22;21729;58.392;15.656;2023-07-22T08:45:48;20.10;99.90
35607;DHT22;21729;58.392;15.656;2023-07-22T08:48:17;20.00;99.90
35607;DHT22;21729;58.392;15.656;2023-07-22T08:50:46;20.00;99.90
35607;DHT22;21729;58.392;15.656;2023-07-22T08:53:17;19.70;99.90
35607;DHT22;21729;58.392;15.656;2023-07-22T08:55:46;19.40;99.90
35607;DHT22;21729;58.392;15.656;2023-07-22T08:58:14;19.10;99.90
35607;DHT22;21729;58.392;15.656;2023-07-22T09:00:42;18.50;99.90
35607;DHT22;21729;58.392;15.656;2023-07-22T09:03:10;18.50;99.90
35607;DHT22;21729;58.392;15.656;2023-07-22T09:05:38;18.40;99.90
35607;DHT22;21729;58.392;15.656;2023-07-22T09:08:07;18.00;99.90
35607;DHT22;21729;58.392;15.656;2023-07-22T09:10:37;18.00;99.90
35607;DHT22;21729;58.392;15.656;2023-07-22T09:13:04;18.00;99.90
35607;DHT22;21729;58.392;15.656;2023-07-22T09:15:35;18.30;99.90
35607;DHT22;21729;58.392;15.656;2023-07-22T09:18:03;18.20;99.90
35607;DHT22;21729;58.392;15.656;2023-07-22T09:20:30;18.20;99.90
35607;DHT22;21729;58.392;15.656;2023-07-22T09:22:57;18.20;99.90
35607;DHT22;21729;58.392;15.656;2023-07-22T09:25:26;18.50;99.90
35607;DHT22;21729;58.392;15.656;2023-07-22T09:27:58;18.50;99.90
35607;DHT22;21729;58.392;15.656;2023-07-22T09:30:26;19.80;99.90
35607;DHT22;21729;58.392;15.656;2023-07-22T09:32:55;19.60;99.90
35607;DHT22;21729;58.392;15.656;2023-07-22T09:35:23;19.20;99.90
35607;DHT22;21729;58.392;15.656;2023-07-22T09:37:50;19.40;99.90
35607;DHT22;21729;58.392;15.656;2023-07-22T09:40:20;21.70;99.90
35607;DHT22;21729;58.392;15.656;2023-07-22T09:42:49;20.20;99.90
35607;DHT22;21729;58.392;15.656;2023-07-22T09:45:19;19.70;99.90
35607;DHT22;21729;58.392;15.656;2023-07-22T09:47:48;19.10;99.90
35607;DHT22;21729;58.392;15.656;2023-07-22T09:50:18;18.70;99.90
35607;DHT22;21729;58.392;15.656;2023-07-22T09:52:48;18.40;99.90
35607;DHT22;21729;58.392;15.656;2023-07-22T09:55:17;18.10;99.90
35607;DHT22;21729;58.392;15.656;2023-07-22T09:57:46;17.90;99.90
35607;DHT22;21729;58.392;15.656;2023-07-22T10:00:15;17.90;99.90
35607;DHT22;21729;58.392;15.656;2023-07-22T10:02:43;19.00;99.90
35607;DHT22;21729;58.392;15.656;2023-07-22T10:05:13;18.90;99.90
35607;DHT22;21729;58.392;15.656;2023-07-22T10:07:46;19.10;99.90
35607;DHT22;21729;58.392;15.656;2023-07-22T10:10:16;19.40;99.90
35607;DHT22;21729;58.392;15.656;2023-07-22T10:12:44;19.10;99.90
35607;DHT22;21729;58.392;15.656;2023-07-22T10:15:12;19.10;99.90
35607;DHT22;21729;58.392;15.656;2023-07-22T10:17:40;19.20;99.90
35607;DHT22;21729;58.392;15.656;2023-07-22T10:20:10;19.50;99.90
35607;DHT22;21729;58.392;15.656;2023-07-22T10:22:42;19.10;99.90
35607;DHT22;21729;58.392;15.656;2023-07-22T10:25:11;19.80;99.90
35607;DHT22;21729;58.392;15.656;2023-07-22T10:27:39;20.20;99.90
35607;DHT22;21729;58.392;15.656;2023-07-22T10:30:08;19.70;99.90
35607;DHT22;21729;58.392;15.656;2023-07-22T10:32:37;19.60;99.90
35607;DHT22;21729;58.392;15.656;2023-07-22T10:35:10;19.10;99.90
35607;DHT22;21729;58.392;15.656;2023-07-22T10:37:37;18.80;99.90
35607;DHT22;21729;58.392;15.656;2023-07-22T10:40:25;18.70;99.90
35607;DHT22;21729;58.392;15.656;2023-07-22T10:42:59;18.80;99.90
35607;DHT22;21729;58.392;15.656;2023-07-22T10:45:27;18.80;99.90
35607;DHT22;21729;58.392;15.656;2023-07-22T10:48:02;18.80;99.90
35607;DHT22;21729;58.392;15.656;2023-07-22T10:50:42;18.90;99.90
35607;DHT22;21729;58.392;15.656;2023-07-22T10:53:10;19.10;99.90
35607;DHT22;21729;58.392;15.656;2023-07-22T10:56:03;19.30;99.90
35607;DHT22;21729;58.392;15.656;2023-07-22T10:58:31;19.70;99.90
35607;DHT22;21729;58.392;15.656;2023-07-22T11:01:23;19.70;99.90
35607;DHT22;21729;58.392;15.656;2023-07-22T11:04:11;19.90;99.90
35607;DHT22;21729;58.392;15.656;2023-07-22T11:06:53;19.70;99.90
35607;DHT22;21729;58.392;15.656;2023-07-22T11:09:37;19.20;99.90
35607;DHT22;21729;58.392;15.656;2023-07-22T11:12:07;18.60;99.90
35607;DHT22;21729;58.392;15.656;2023-07-22T11:14:35;18.50;99.90
35607;DHT22;21729;58.392;15.656;2023-07-22T11:17:05;18.20;99.90
35607;DHT22;21729;58.392;15.656;2023-07-22T11:19:33;18.10;99.90
35607;DHT22;21729;58.392;15.656;2023-07-22T11:22:03;17.90;99.90
35607;DHT22;21729;58.392;15.656;2023-07-22T11:24:32;17.10;99.90
35607;DHT22;21729;58.392;15.656;2023-07-22T11:27:03;16.50;99.90
35607;DHT22;21729;58.392;15.656;2023-07-22T11:29:30;16.10;1.00
35607;DHT22;21729;58.392;15.656;2023-07-22T11:31:58;15.90;1.00
35607;DHT22;21729;58.392;15.656;2023-07-22T11:34:25;15.80;20.30
35607;DHT22;21729;58.392;15.656;2023-07-22T11:36:54;15.70;99.90
35607;DHT22;21729;58.392;15.656;2023-07-22T11:39:24;15.70;99.90
35607;DHT22;21729;58.392;15.656;2023-07-22T11:41:52;15.80;99.90
35607;DHT22;21729;58.392;15.656;2023-07-22T11:44:20;16.00;99.90
35607;DHT22;21729;58.392;15.656;2023-07-22T11:46:51;16.10;99.90
35607;DHT22;21729;58.392;15.656;2023-07-22T11:49:26;16.00;99.90
35607;DHT22;21729;58.392;15.656;2023-07-22T11:51:58;15.90;32.00
35607;DHT22;21729;58.392;15.656;2023-07-22T11:54:27;15.80;27.30
35607;DHT22;21729;58.392;15.656;2023-07-22T11:56:55;15.60;1.00
35607;DHT22;21729;58.392;15.656;2023-07-22T11:59:33;15.40;99.90
35607;DHT22;21729;58.392;15.656;2023-07-22T12:02:00;15.30;99.90
35607;DHT22;21729;58.392;15.656;2023-07-22T12:04:29;15.40;99.90
35607;DHT22;21729;58.392;15.656;2023-07-22T12:06:56;15.40;99.90
35607;DHT22;21729;58.392;15.656;2023-07-22T12:09:23;15.40;99.90
35607;DHT22;21729;58.392;15.656;2023-07-22T12:11:57;15.60;99.90
35607;DHT22;21729;58.392;15.656;2023-07-22T12:14:31;15.80;99.90
35607;DHT22;21729;58.392;15.656;2023-07-22T12:16:59;16.10;94.60
35607;DHT22;21729;58.392;15.656;2023-07-22T12:19:28;16.40;86.50
35607;DHT22;21729;58.392;15.656;2023-07-22T12:21:55;16.60;30.20
35607;DHT22;21729;58.392;15.656;2023-07-22T12:24:23;16.80;1.00
35607;DHT22;21729;58.392;15.656;2023-07-22T12:26:50;17.10;1.00
35607;DHT22;21729;58.392;15.656;2023-07-22T12:29:18;17.40;3.60
35607;DHT22;21729;58.392;15.656;2023-07-22T12:31:45;17.50;1.00
35607;DHT22;21729;58.392;15.656;2023-07-22T12:34:12;17.60;1.00
35607;DHT22;21729;58.392;15.656;2023-07-22T12:36:40;17.50;1.00
35607;DHT22;21729;58.392;15.656;2023-07-22T12:39:07;17.60;1.00
35607;DHT22;21729;58.392;15.656;2023-07-22T12:41:35;17.80;1.00
35607;DHT22;21729;58.392;15.656;2023-07-22T12:44:02;18.10;1.00
35607;DHT22;21729;58.392;15.656;2023-07-22T12:46:30;18.00;1.00
35607;DHT22;21729;58.392;15.656;2023-07-22T12:48:57;18.00;99.90
35607;DHT22;21729;58.392;15.656;2023-07-22T12:51:24;18.10;99.90
35607;DHT22;21729;58.392;15.656;2023-07-22T12:53:52;18.10;1.00
35607;DHT22;21729;58.392;15.656;2023-07-22T12:56:19;18.20;99.90
35607;DHT22;21729;58.392;15.656;2023-07-22T12:58:46;18.20;99.90
35607;DHT22;21729;58.392;15.656;2023-07-22T13:01:13;18.30;99.90
35607;DHT22;21729;58.392;15.656;2023-07-22T13:03:41;18.30;99.90
35607;DHT22;21729;58.392;15.656;2023-07-22T13:06:08;18.20;99.90
35607;DHT22;21729;58.392;15.656;2023-07-22T13:08:36;18.00;1.00
35607;DHT22;21729;58.392;15.656;2023-07-22T13:11:03;17.90;99.90
35607;DHT22;21729;58.392;15.656;2023-07-22T13:13:30;17.90;1.00
35607;DHT22;21729;58.392;15.656;2023-07-22T13:15:57;17.70;1.00
35607;DHT22;21729;58.392;15.656;2023-07-22T13:18:24;17.70;1.00
35607;DHT22;21729;58.392;15.656;2023-07-22T13:20:53;17.60;1.00
35607;DHT22;21729;58.392;15.656;2023-07-22T13:23:20;17.60;1.00
35607;DHT22;21729;58.392;15.656;2023-07-22T13:25:47;17.60;99.90
35607;DHT22;21729;58.392;15.656;2023-07-22T13:28:14;17.70;99.90
35607;DHT22;21729;58.392;15.656;2023-07-22T13:30:41;17.70;99.90
35607;DHT22;21729;58.392;15.656;2023-07-22T13:33:09;17.60;99.90
35607;DHT22;21729;58.392;15.656;2023-07-22T13:35:36;17.80;99.90
35607;DHT22;21729;58.392;15.656;2023-07-22T13:38:05;17.80;99.90
35607;DHT22;21729;58.392;15.656;2023-07-22T13:40:32;17.90;99.90
35607;DHT22;21729;58.392;15.656;2023-07-22T13:42:59;17.90;99.90
35607;DHT22;21729;58.392;15.656;2023-07-22T13:45:27;17.90;79.30
35607;DHT22;21729;58.392;15.656;2023-07-22T13:47:54;17.90;30.20
35607;DHT22;21729;58.392;15.656;2023-07-22T13:50:21;18.00;52.80
35607;DHT22;21729;58.392;15.656;2023-07-22T13:52:49;17.90;99.90
35607;DHT22;21729;58.392;15.656;2023-07-22T13:55:17;18.00;87.10
35607;DHT22;21729;58.392;15.656;2023-07-22T13:57:45;18.00;1.00
35607;DHT22;21729;58.392;15.656;2023-07-22T14:00:12;18.20;1.00
35607;DHT22;21729;58.392;15.656;2023-07-22T14:02:41;18.30;1.00
35607;DHT22;21729;58.392;15.656;2023-07-22T14:05:09;18.40;1.00
35607;DHT22;21729;58.392;15.656;2023-07-22T14:07:36;18.40;1.00
35607;DHT22;21729;58.392;15.656;2023-07-22T14:10:04;18.50;1.00
35607;DHT22;21729;58.392;15.656;2023-07-22T14:12:33;18.50;1.00
35607;DHT22;21729;58.392;15.656;2023-07-22T14:15:00;18.60;1.00
35607;DHT22;21729;58.392;15.656;2023-07-22T14:17:30;18.60;1.00
35607;DHT22;21729;58.392;15.656;2023-07-22T14:19:58;18.70;1.00
35607;DHT22;21729;58.392;15.656;2023-07-22T14:22:25;18.50;39.20
35607;DHT22;21729;58.392;15.656;2023-07-22T14:24:52;18.50;1.00
35607;DHT22;21729;58.392;15.656;2023-07-22T14:27:19;18.50;1.00
35607;DHT22;21729;58.392;15.656;2023-07-22T14:29:47;18.40;1.00
35607;DHT22;21729;58.392;15.656;2023-07-22T14:32:14;18.40;1.00
35607;DHT22;21729;58.392;15.656;2023-07-22T14:34:42;18.30;51.90
35607;DHT22;21729;58.392;15.656;2023-07-22T14:37:09;18.30;99.90
35607;DHT22;21729;58.392;15.656;2023-07-22T14:39:36;18.20;45.70
35607;DHT22;21729;58.392;15.656;2023-07-22T14:42:04;18.20;41.60
35607;DHT22;21729;58.392;15.656;2023-07-22T14:44:31;18.30;99.90
35607;DHT22;21729;58.392;15.656;2023-07-22T14:46:59;18.20;99.90
35607;DHT22;21729;58.392;15.656;2023-07-22T14:49:26;18.20;85.60
35607;DHT22;21729;58.392;15.656;2023-07-22T14:51:54;18.00;99.90
35607;DHT22;21729;58.392;15.656;2023-07-22T14:54:22;18.20;99.90
35607;DHT22;21729;58.392;15.656;2023-07-22T14:56:49;18.10;99.90
35607;DHT22;21729;58.392;15.656;2023-07-22T14:59:16;18.20;99.90
35607;DHT22;21729;58.392;15.656;2023-07-22T15:01:43;18.30;99.90
35607;DHT22;21729;58.392;15.656;2023-07-22T15:04:11;18.20;99.90
35607;DHT22;21729;58.392;15.656;2023-07-22T15:06:38;18.20;99.90
35607;DHT22;21729;58.392;15.656;2023-07-22T15:09:05;18.20;24.30
35607;DHT22;21729;58.392;15.656;2023-07-22T15:11:35;18.20;38.50
35607;DHT22;21729;58.392;15.656;2023-07-22T15:14:02;18.20;54.00
35607;DHT22;21729;58.392;15.656;2023-07-22T15:16:29;18.10;73.00
35607;DHT22;21729;58.392;15.656;2023-07-22T15:18:56;18.00;99.90
35607;DHT22;21729;58.392;15.656;2023-07-22T15:21:25;17.80;99.90
35607;DHT22;21729;58.392;15.656;2023-07-22T15:23:52;17.90;99.90
35607;DHT22;21729;58.392;15.656;2023-07-22T15:26:19;17.90;99.90
35607;DHT22;21729;58.392;15.656;2023-07-22T15:28:47;17.90;99.90